createdAt,value
2018-08-02T07:54:14.576Z,10.75
2018-08-02T07:56:43.064Z,8.97
2018-08-02T07:59:11.557Z,7.77
2018-08-02T08:01:40.072Z,8.37
2018-08-02T08:04:08.590Z,8.18
2018-08-02T08:06:37.044Z,7.37
2018-08-02T08:09:06.606Z,8.03
2018-08-02T08:11:35.094Z,8.45
2018-08-02T08:14:03.753Z,8.03
2018-08-02T08:16:32.253Z,10.78
2018-08-02T08:19:00.775Z,8.35
2018-08-02T08:21:29.427Z,7.42
2018-08-02T08:23:57.929Z,9.78
2018-08-02T08:26:26.436Z,9.68
2018-08-02T08:28:54.921Z,6.62
2018-08-02T08:31:23.450Z,7.42
2018-08-02T08:33:51.998Z,8.20
2018-08-02T08:36:20.527Z,7.15
2018-08-02T08:38:48.960Z,5.08
2018-08-02T08:41:17.760Z,6.43
2018-08-02T08:43:46.298Z,8.35
2018-08-02T08:46:14.782Z,6.87
2018-08-02T08:48:43.297Z,7.12
2018-08-02T08:51:11.806Z,4.87
2018-08-02T08:53:40.429Z,6.25
2018-08-02T08:56:08.928Z,5.65
2018-08-02T08:58:37.432Z,5.08
2018-08-02T09:01:05.919Z,5.00
2018-08-02T09:03:34.460Z,5.30
2018-08-02T09:06:02.885Z,4.40
2018-08-02T09:08:31.384Z,4.45
2018-08-02T09:10:59.867Z,8.63
2018-08-02T09:13:28.322Z,4.92
2018-08-02T09:15:56.787Z,4.67
2018-08-02T09:18:25.318Z,4.40
2018-08-02T09:20:53.910Z,5.20
2018-08-02T09:23:22.373Z,6.42
2018-08-02T09:25:50.913Z,8.23
2018-08-02T09:28:19.444Z,5.92
2018-08-02T09:30:47.984Z,5.80
2018-08-02T09:33:16.612Z,4.58
2018-08-02T09:35:45.120Z,5.95
2018-08-02T09:38:13.621Z,5.10
2018-08-02T09:40:42.117Z,4.55
2018-08-02T09:43:10.607Z,4.50
2018-08-02T09:45:39.217Z,4.85
2018-08-02T09:48:07.665Z,4.50
2018-08-02T09:50:36.155Z,4.90
2018-08-02T09:53:04.640Z,4.33
2018-08-02T09:55:33.119Z,4.58
2018-08-02T09:58:01.808Z,4.22
2018-08-02T10:00:35.811Z,5.90
2018-08-02T10:03:04.360Z,5.70
2018-08-02T10:05:32.976Z,4.85
2018-08-02T10:08:01.473Z,4.85
2018-08-02T10:10:29.952Z,4.58
2018-08-02T10:12:58.516Z,5.40
2018-08-02T10:15:26.971Z,4.70
2018-08-02T10:17:55.457Z,4.47
2018-08-02T10:20:24.016Z,4.53
2018-08-02T10:22:52.521Z,5.17
2018-08-02T10:25:21.027Z,4.45
2018-08-02T10:27:49.506Z,6.17
2018-08-02T10:30:17.972Z,5.10
2018-08-02T10:32:46.586Z,5.08
2018-08-02T10:35:15.216Z,4.65
2018-08-02T10:37:43.698Z,5.47
2018-08-02T10:40:12.296Z,4.70
2018-08-02T10:42:40.757Z,4.92
2018-08-02T10:45:09.259Z,4.40
2018-08-02T10:47:38.112Z,4.55
2018-08-02T10:50:06.556Z,4.83
2018-08-02T10:52:35.040Z,6.12
2018-08-02T10:55:03.516Z,5.15
2018-08-02T10:57:32.004Z,4.83
2018-08-02T11:00:00.601Z,4.67
2018-08-02T11:02:29.061Z,4.70
2018-08-02T11:04:57.549Z,5.03
2018-08-02T11:07:26.042Z,5.28
2018-08-02T11:09:54.704Z,4.70
2018-08-02T11:12:23.196Z,4.83
2018-08-02T11:14:51.668Z,33.33
2018-08-02T11:17:20.151Z,15.43
2018-08-02T11:19:48.674Z,24.92
2018-08-02T11:22:17.188Z,36.25
2018-08-02T11:24:45.721Z,10.70
2018-08-02T11:27:14.195Z,17.07
2018-08-02T11:29:43.598Z,12.45
2018-08-02T11:33:36.479Z,9.00
2018-08-02T11:36:04.962Z,15.58
2018-08-02T11:38:33.484Z,8.13
2018-08-02T11:41:01.948Z,7.20
2018-08-02T11:43:30.476Z,6.90
2018-08-02T11:45:58.943Z,8.40
2018-08-02T11:48:27.447Z,8.45
2018-08-02T11:50:55.955Z,11.10
2018-08-02T11:57:43.859Z,5.83
2018-08-02T12:00:12.184Z,17.92
2018-08-02T12:02:40.712Z,36.03
2018-08-02T12:05:09.192Z,67.32
2018-08-02T12:07:38.419Z,48.83
2018-08-02T12:10:06.985Z,16.82
2018-08-02T12:12:36.503Z,19.35
2018-08-02T12:15:05.389Z,17.70
2018-08-02T12:17:33.994Z,9.05
2018-08-02T12:20:02.631Z,7.83
2018-08-02T12:22:31.079Z,37.75
2018-08-02T12:24:59.556Z,9.23
2018-08-02T12:27:28.776Z,9.45
2018-08-02T12:29:57.305Z,10.72
2018-08-02T12:32:25.998Z,9.88
2018-08-02T12:34:54.489Z,7.58
2018-08-02T12:37:23.001Z,10.38
2018-08-02T12:39:51.506Z,9.03
2018-08-02T12:42:19.993Z,6.10
2018-08-02T12:44:49.031Z,10.25
2018-08-02T12:47:17.500Z,7.25
2018-08-02T12:49:46.030Z,7.12
2018-08-02T12:52:14.781Z,7.85
2018-08-02T12:54:43.437Z,14.28
2018-08-02T12:57:11.816Z,8.23
2018-08-02T12:59:40.364Z,8.78
2018-08-02T13:02:09.315Z,6.75
2018-08-02T13:04:38.210Z,7.35
2018-08-02T13:07:06.836Z,14.25
2018-08-02T13:09:35.797Z,6.85
2018-08-02T13:12:04.533Z,9.93
2018-08-02T13:14:33.037Z,7.17
2018-08-02T13:17:01.590Z,6.70
2018-08-02T13:19:30.000Z,5.80
2018-08-02T13:21:58.468Z,9.98
2018-08-02T13:24:27.002Z,14.87
2018-08-02T13:26:55.459Z,12.37
2018-08-02T13:29:26.468Z,6.65
2018-08-02T13:31:55.008Z,13.00
2018-08-02T13:34:23.461Z,11.45
2018-08-02T13:36:51.931Z,7.20
2018-08-02T13:39:20.464Z,7.55
2018-08-02T13:41:49.199Z,6.65
2018-08-02T13:44:17.750Z,6.28
2018-08-02T13:46:46.131Z,6.25
2018-08-02T13:49:14.634Z,8.30
2018-08-02T13:51:43.095Z,6.20
2018-08-02T13:54:11.587Z,7.08
2018-08-02T13:56:40.070Z,8.50
2018-08-02T13:59:08.559Z,8.10
2018-08-02T14:01:37.176Z,10.00
2018-08-02T14:04:05.689Z,6.67
2018-08-02T14:06:34.270Z,7.83
2018-08-02T14:09:02.711Z,7.67
2018-08-02T14:11:31.286Z,5.40
2018-08-02T14:13:59.707Z,7.47
2018-08-02T14:16:28.185Z,5.78
2018-08-02T14:18:56.684Z,6.12
2018-08-02T14:21:25.166Z,8.13
2018-08-02T14:23:53.693Z,7.83
2018-08-02T14:26:25.325Z,5.58
2018-08-02T14:28:53.993Z,7.10
2018-08-02T14:31:22.489Z,7.75
2018-08-02T14:33:52.406Z,6.22
2018-08-02T14:36:20.868Z,5.92
2018-08-02T14:38:49.337Z,7.22
2018-08-02T14:41:17.868Z,7.87
2018-08-02T14:43:47.065Z,22.30
2018-08-02T14:46:15.809Z,13.40
2018-08-02T14:48:45.140Z,18.92
2018-08-02T14:51:13.767Z,29.45
2018-08-02T14:53:42.224Z,65.28
2018-08-02T14:56:10.786Z,148.65
2018-08-02T14:58:39.287Z,112.37
2018-08-02T15:01:07.804Z,23.92
2018-08-02T15:03:37.354Z,70.55
2018-08-02T15:06:06.022Z,60.78
2018-08-02T15:08:36.667Z,15.48
2018-08-02T15:11:05.162Z,29.23
2018-08-02T15:13:33.687Z,18.80
2018-08-02T15:16:02.251Z,10.35
2018-08-02T15:18:30.817Z,23.73
2018-08-02T15:20:59.308Z,12.70
2018-08-02T15:23:27.981Z,8.15
2018-08-02T15:25:56.483Z,9.80
2018-08-02T15:28:24.952Z,7.53
2018-08-02T15:30:53.495Z,12.35
2018-08-02T15:33:22.053Z,9.85
2018-08-02T15:35:50.658Z,12.25
2018-08-02T15:38:19.190Z,17.60
2018-08-02T15:40:47.667Z,7.50
2018-08-02T15:43:16.240Z,10.40
2018-08-02T15:45:44.742Z,5.97
2018-08-02T15:48:13.222Z,5.85
2018-08-02T15:50:41.746Z,11.48
2018-08-02T15:53:10.244Z,5.75
2018-08-02T15:55:38.835Z,12.50
2018-08-02T15:58:07.442Z,7.50
2018-08-02T16:00:35.954Z,6.37
2018-08-02T16:03:04.466Z,7.58
2018-08-02T16:05:32.972Z,7.00
2018-08-02T16:08:01.459Z,6.15
2018-08-02T16:10:29.918Z,9.33
2018-08-02T16:12:58.410Z,5.95
2018-08-02T16:15:26.905Z,10.38
2018-08-02T16:17:55.389Z,6.50
2018-08-02T16:20:24.364Z,7.17
2018-08-02T16:22:52.942Z,8.63
2018-08-02T16:25:23.445Z,7.78
2018-08-02T16:27:51.994Z,8.48
2018-08-02T16:30:20.642Z,10.35
2018-08-02T16:32:48.986Z,8.05
2018-08-02T16:35:17.643Z,10.80
2018-08-02T16:37:46.136Z,13.80
2018-08-02T16:40:14.701Z,13.60
2018-08-02T16:42:43.247Z,9.78
2018-08-02T16:45:11.798Z,11.53
2018-08-02T16:47:40.297Z,8.00
2018-08-02T16:50:08.900Z,6.15
2018-08-02T16:52:37.386Z,9.45
2018-08-02T16:55:05.849Z,9.83
2018-08-02T16:57:34.353Z,7.47
2018-08-02T17:00:02.844Z,7.00
2018-08-02T17:02:31.388Z,8.83
2018-08-02T17:04:59.883Z,6.47
2018-08-02T17:07:28.573Z,9.38
2018-08-02T17:09:57.108Z,6.95
2018-08-02T17:12:25.606Z,6.17
2018-08-02T17:14:54.174Z,6.65
2018-08-02T17:17:22.632Z,7.22
2018-08-02T17:19:51.140Z,6.17
2018-08-02T17:22:19.705Z,7.03
2018-08-02T17:24:49.063Z,6.03
2018-08-02T17:27:17.552Z,5.67
2018-08-02T17:29:46.024Z,5.90
2018-08-02T17:32:14.535Z,6.53
2018-08-02T17:34:43.040Z,7.37
2018-08-02T17:37:11.525Z,6.67
2018-08-02T17:39:40.000Z,6.45
2018-08-02T17:42:11.722Z,6.40
2018-08-02T17:44:40.197Z,7.55
2018-08-02T17:47:08.667Z,7.65
2018-08-02T17:49:37.167Z,6.72
2018-08-02T17:52:05.640Z,7.85
2018-08-02T17:54:34.116Z,6.58
2018-08-02T17:57:02.639Z,7.80
2018-08-02T17:59:31.157Z,6.83
2018-08-02T18:01:59.713Z,7.33
2018-08-02T18:04:28.165Z,8.43
2018-08-02T18:06:56.660Z,7.40
2018-08-02T18:09:28.288Z,7.97
2018-08-02T18:11:56.828Z,8.33
2018-08-02T18:14:25.349Z,9.63
2018-08-02T18:16:53.817Z,8.18
2018-08-02T18:19:22.299Z,8.25
2018-08-02T18:21:50.878Z,8.70
2018-08-02T18:24:19.346Z,8.48
2018-08-02T18:26:47.824Z,8.78
2018-08-02T18:29:16.300Z,8.03
2018-08-02T18:31:44.790Z,7.08
2018-08-02T18:34:14.036Z,8.13
2018-08-02T18:36:42.589Z,8.35
2018-08-02T18:39:11.122Z,7.78
2018-08-02T18:41:39.560Z,7.33
2018-08-02T18:44:08.041Z,7.97
2018-08-02T18:46:36.550Z,7.00
2018-08-02T18:49:05.240Z,8.15
2018-08-02T18:51:33.852Z,8.40
2018-08-02T18:54:02.260Z,8.40
2018-08-02T18:56:30.753Z,7.65
2018-08-02T18:58:59.317Z,8.25
2018-08-02T19:01:27.803Z,8.45
2018-08-02T19:03:57.000Z,8.43
2018-08-02T19:06:25.483Z,9.18
2018-08-02T19:08:54.369Z,8.25
2018-08-02T19:11:22.852Z,8.30
2018-08-02T19:13:51.332Z,8.00
2018-08-02T19:16:21.038Z,7.45
2018-08-02T19:18:49.512Z,7.78
2018-08-02T19:21:17.995Z,7.72
2018-08-02T19:23:46.460Z,7.30
2018-08-02T19:26:14.987Z,7.65
2018-08-02T19:28:43.447Z,8.48
2018-08-02T19:31:13.088Z,8.65
2018-08-02T19:33:41.589Z,8.30
2018-08-02T19:36:10.053Z,9.20
2018-08-02T19:38:38.573Z,10.13
2018-08-02T19:41:07.324Z,13.28
2018-08-02T19:43:35.831Z,12.20
2018-08-02T19:46:04.442Z,10.00
2018-08-02T19:48:33.664Z,8.70
2018-08-02T19:51:02.978Z,8.73
2018-08-02T19:53:31.509Z,8.45
2018-08-02T19:56:00.181Z,7.65
2018-08-02T19:58:28.620Z,7.45
2018-08-02T20:00:58.137Z,8.08
2018-08-02T20:03:27.654Z,7.20
2018-08-02T20:05:56.137Z,7.85
2018-08-02T20:08:26.024Z,7.70
2018-08-02T20:10:54.727Z,8.58
2018-08-02T20:13:23.694Z,8.80
2018-08-02T20:15:52.463Z,7.28
2018-08-02T20:18:21.220Z,7.72
2018-08-02T20:20:49.704Z,7.78
2018-08-02T20:23:18.225Z,7.42
2018-08-02T20:25:46.736Z,7.75
2018-08-02T20:28:15.276Z,8.05
2018-08-02T20:30:43.757Z,7.80
2018-08-02T20:33:12.239Z,8.48
2018-08-02T20:35:40.824Z,8.65
2018-08-02T20:38:10.030Z,8.13
2018-08-02T20:40:38.557Z,7.42
2018-08-02T20:43:07.107Z,7.42
2018-08-02T20:45:36.675Z,6.80
2018-08-02T20:48:05.347Z,7.20
2018-08-02T20:50:33.825Z,7.10
2018-08-02T20:53:02.320Z,7.17
2018-08-02T20:55:30.822Z,6.80
2018-08-02T20:57:59.324Z,7.08
2018-08-02T21:00:27.899Z,7.08
2018-08-02T21:02:56.380Z,7.17
2018-08-02T21:05:24.868Z,7.10
2018-08-02T21:07:53.337Z,6.37
2018-08-02T21:10:21.811Z,7.58
2018-08-02T21:12:50.397Z,7.72
2018-08-02T21:15:18.903Z,7.25
2018-08-02T21:17:47.457Z,6.65
2018-08-02T21:20:15.943Z,7.55
2018-08-02T21:22:44.430Z,7.15
2018-08-02T21:25:12.884Z,7.58
2018-08-02T21:27:41.364Z,8.13
2018-08-02T21:30:09.838Z,7.37
2018-08-02T21:32:38.398Z,7.40
2018-08-02T21:35:06.896Z,7.55
2018-08-02T21:37:35.402Z,8.48
2018-08-02T21:40:04.089Z,27.52
2018-08-02T21:42:32.593Z,60.83
2018-08-02T21:45:01.067Z,121.10
2018-08-02T21:47:29.570Z,117.53
2018-08-02T21:49:58.040Z,177.32
2018-08-02T21:52:26.553Z,125.18
2018-08-02T21:54:55.145Z,42.40
2018-08-02T21:57:23.605Z,44.08
2018-08-02T21:59:52.353Z,47.13
2018-08-02T22:02:20.892Z,20.40
2018-08-02T22:04:49.447Z,17.30
2018-08-02T22:07:18.541Z,41.45
2018-08-02T22:09:48.637Z,20.80
2018-08-02T22:13:23.616Z,20.50
2018-08-02T22:15:53.890Z,11.80
2018-08-02T22:18:22.380Z,11.20
2018-08-02T22:20:50.892Z,11.53
2018-08-02T22:23:19.402Z,9.40
2018-08-02T22:25:47.983Z,17.05
2018-08-02T22:28:16.582Z,14.80
2018-08-02T22:30:45.084Z,24.70
2018-08-02T22:33:13.570Z,80.05
2018-08-02T22:35:42.048Z,89.52
2018-08-02T22:38:10.911Z,123.02
2018-08-02T22:40:39.753Z,93.67
2018-08-02T22:43:08.221Z,66.42
2018-08-02T22:45:36.671Z,49.88
2018-08-02T22:48:05.170Z,40.43
2018-08-02T22:50:33.692Z,29.57
2018-08-02T22:53:02.253Z,22.50
2018-08-02T22:55:30.704Z,13.58
2018-08-02T22:57:59.186Z,14.87
2018-08-02T23:00:27.671Z,15.35
2018-08-02T23:02:56.179Z,11.33
2018-08-02T23:05:24.669Z,13.65
2018-08-02T23:07:53.139Z,11.70
2018-08-02T23:10:21.636Z,11.25
2018-08-02T23:12:50.160Z,10.88
2018-08-02T23:15:18.623Z,10.95
2018-08-02T23:17:47.121Z,10.75
2018-08-02T23:20:19.123Z,9.65
2018-08-02T23:22:49.732Z,12.88
2018-08-02T23:25:18.508Z,44.58
2018-08-02T23:27:46.984Z,266.52
2018-08-02T23:30:15.492Z,242.82
2018-08-02T23:32:43.979Z,32.08
2018-08-02T23:35:12.496Z,22.48
2018-08-02T23:37:41.250Z,20.15
2018-08-02T23:40:09.708Z,17.95
2018-08-02T23:42:38.188Z,14.53
2018-08-02T23:45:06.676Z,14.68
2018-08-02T23:47:35.170Z,13.95
2018-08-02T23:50:04.232Z,12.80
2018-08-02T23:52:32.728Z,12.45
2018-08-02T23:55:01.196Z,11.48
2018-08-02T23:57:29.671Z,10.55
2018-08-02T23:59:58.183Z,10.70
